Time;durP1;ratioP1;P1;durP2;ratioP2;P2;SDS_P1;SDS_P2;PMS_P1;PMS_P2;Temp;Humidity;BMP_temperature;BMP_pressure;BME280_temperature;BME280_humidity;BME280_pressure;Samples;Min_cycle;Max_cycle;Signal;HPM_P1;HPM_P2
2022/07/10 00:01:11;;;;;;;;;2.00;2.00;;;;;23.02;39.86;102212.69;4955820;28;45913;-74
2022/07/10 00:03:36;;;;;;;;;2.00;2.00;;;;;22.93;40.07;102198.31;4956363;28;46277;-74
2022/07/10 00:06:01;;;;;;;;;2.33;2.33;;;;;23.02;39.85;102208.16;4957069;28;45468;-74
2022/07/10 00:08:27;;;;;;;;;3.00;2.00;;;;;22.93;39.96;102195.63;4957083;28;45880;-74
2022/07/10 00:10:52;;;;;;;;;2.00;2.00;;;;;23.03;39.83;102219.91;4957081;28;45512;-74
2022/07/10 00:13:18;;;;;;;;;2.00;2.00;;;;;23.02;40.38;102215.38;4955986;28;45462;-74
2022/07/10 00:15:43;;;;;;;;;2.33;2.33;;;;;22.92;40.51;102190.22;4955194;28;45406;-74
2022/07/10 00:18:08;;;;;;;;;2.00;2.00;;;;;22.94;40.77;102216.34;4956596;28;45380;-74
2022/07/10 00:20:35;;;;;;;;;3.33;2.00;;;;;22.66;40.61;102172.44;4955241;28;45632;-74
2022/07/10 00:23:00;;;;;;;;;1.33;1.33;;;;;22.77;40.77;102197.56;4956640;28;45615;-74
2022/07/10 00:25:26;;;;;;;;;3.00;3.00;;;;;22.72;40.94;102203.94;4956482;28;45372;-74
2022/07/10 00:27:51;;;;;;;;;3.00;3.00;;;;;22.76;41.11;102220.13;4956646;28;45421;-74
2022/07/10 00:30:16;;;;;;;;;3.00;3.00;;;;;22.78;41.52;102225.53;4956480;28;45392;-74
2022/07/10 00:32:42;;;;;;;;;3.33;3.00;;;;;22.81;41.17;102230.00;4940844;28;46097;-77
2022/07/10 00:35:08;;;;;;;;;3.00;3.00;;;;;22.61;41.80;102209.44;4937087;28;45346;-75
2022/07/10 00:37:34;;;;;;;;;3.33;2.33;;;;;22.71;41.88;102234.59;4939803;28;45509;-81
2022/07/10 00:40:00;;;;;;;;;3.33;3.33;;;;;22.62;41.78;102222.06;4956214;28;45268;-79
2022/07/10 00:42:25;;;;;;;;;4.00;2.00;;;;;22.60;42.25;102232.88;4956435;28;45445;-79
2022/07/10 00:44:51;;;;;;;;;2.00;2.00;;;;;22.51;42.47;102227.53;4955996;28;45444;-78
2022/07/10 00:47:19;;;;;;;;;4.00;3.00;;;;;22.49;42.77;102231.16;4955988;28;45561;-80
2022/07/10 00:49:45;;;;;;;;;5.67;3.00;;;;;22.41;42.97;102226.69;4955923;28;45378;-78
2022/07/10 00:52:12;;;;;;;;;3.00;3.00;;;;;22.33;42.42;102222.22;4955464;28;45591;-77
2022/07/10 00:54:39;;;;;;;;;2.00;2.00;;;;;22.20;43.12;102206.06;4955063;28;45243;-78
2022/07/10 00:57:06;;;;;;;;;4.00;3.00;;;;;22.21;43.00;102202.47;4955396;28;45301;-79
2022/07/10 00:59:32;;;;;;;;;4.00;3.00;;;;;22.24;43.14;102197.03;4954080;28;45787;-74
2022/07/10 01:01:58;;;;;;;;;4.00;4.00;;;;;22.33;43.22;102223.16;4952076;28;48501;-74
2022/07/10 01:04:24;;;;;;;;;2.00;2.00;;;;;22.21;43.63;102207.88;4954775;28;45461;-74
2022/07/10 01:06:50;;;;;;;;;2.33;2.33;;;;;22.15;43.46;102221.44;4953360;28;45535;-74
2022/07/10 01:09:15;;;;;;;;;3.00;3.00;;;;;22.06;43.85;102218.78;4954906;28;45530;-74
2022/07/10 01:11:41;;;;;;;;;4.00;2.00;;;;;22.15;43.88;102228.63;4953646;28;45568;-74
2022/07/10 01:14:07;;;;;;;;;4.33;3.00;;;;;22.08;43.89;102207.06;4953981;28;45493;-75
2022/07/10 01:16:32;;;;;;;;;4.00;2.67;;;;;22.10;43.74;102196.25;4953624;28;45463;-75
2022/07/10 01:18:58;;;;;;;;;3.33;3.00;;;;;22.14;43.61;102216.94;4953922;28;45600;-75
2022/07/10 01:21:31;;;;;;;;;3.00;3.00;;;;;22.06;43.89;102203.44;4953817;28;45514;-75
2022/07/10 01:23:57;;;;;;;;;4.00;4.00;;;;;21.90;44.14;102188.25;4954148;28;45908;-75
2022/07/10 01:26:23;;;;;;;;;3.00;3.00;;;;;22.05;44.28;102215.19;4959192;28;45390;-75
2022/07/10 01:28:53;;;;;;;;;2.67;2.67;;;;;21.93;43.96;102205.31;4959095;28;45560;-75
2022/07/10 01:31:20;;;;;;;;;2.00;2.00;;;;;21.93;44.28;102213.44;4958818;28;45691;-74
2022/07/10 01:33:46;;;;;;;;;2.33;2.33;;;;;21.92;44.34;102211.63;4958973;28;45520;-74
2022/07/10 01:36:12;;;;;;;;;2.00;2.00;;;;;21.92;44.59;102213.44;4958062;28;45466;-74
2022/07/10 01:38:38;;;;;;;;;2.00;2.00;;;;;22.00;44.55;102217.00;4959108;28;45487;-74
2022/07/10 01:41:03;;;;;;;;;3.00;3.00;;;;;21.89;44.46;102198.16;4959008;28;45502;-75
2022/07/10 01:43:28;;;;;;;;;2.67;2.67;;;;;21.61;44.28;102166.78;4957730;28;45452;-75
2022/07/10 01:45:54;;;;;;;;;2.00;2.00;;;;;21.84;44.19;102208.09;4958622;28;45508;-75
2022/07/10 01:48:19;;;;;;;;;2.00;2.00;;;;;21.72;44.57;102214.44;4959334;28;45820;-74
2022/07/10 01:50:44;;;;;;;;;3.33;3.00;;;;;21.69;44.91;102209.06;4958633;28;46544;-75
2022/07/10 01:53:10;;;;;;;;;3.00;3.00;;;;;21.67;44.48;102202.78;4958812;28;45423;-74
2022/07/10 01:55:36;;;;;;;;;3.00;3.00;;;;;21.66;44.71;102210.84;4957374;28;45378;-74
2022/07/10 01:58:02;;;;;;;;;3.00;3.00;;;;;21.65;44.93;102211.78;4958292;28;45290;-74
2022/07/10 02:00:27;;;;;;;;;3.00;3.00;;;;;21.64;44.85;102205.47;4957077;28;46252;-74
2022/07/10 02:05:37;;;;;;;;;6.00;2.33;;;;;21.56;45.03;102212.69;4958773;28;45386;-75
2022/07/10 02:08:03;;;;;;;;;2.00;2.00;;;;;21.54;45.01;102215.41;4958677;28;45437;-75
2022/07/10 02:10:29;;;;;;;;;2.67;2.67;;;;;21.52;45.08;102209.13;4958486;28;46088;-76
2022/07/10 02:12:55;;;;;;;;;2.00;2.00;;;;;21.49;45.14;102216.28;4958345;28;46037;-76
2022/07/10 02:15:21;;;;;;;;;3.00;3.00;;;;;21.47;45.01;102213.59;4957023;28;45489;-76
2022/07/10 02:17:47;;;;;;;;;4.33;2.00;;;;;21.54;45.06;102210.00;4958390;28;45607;-76
2022/07/10 02:20:12;;;;;;;;;5.67;3.67;;;;;21.37;45.23;102211.84;4958539;28;45435;-76
2022/07/10 02:22:37;;;;;;;;;4.00;4.00;;;;;21.21;45.34;102195.66;4957000;28;45698;-76
2022/07/10 02:25:03;;;;;;;;;3.67;3.67;;;;;21.15;45.59;102201.09;4956992;28;45390;-76
2022/07/10 02:27:28;;;;;;;;;2.67;2.67;;;;;21.07;45.38;102184.91;4958674;28;45706;-77
2022/07/10 02:29:54;;;;;;;;;4.33;4.33;;;;;21.15;45.51;102184.91;4957700;28;45473;-77
2022/07/10 02:32:19;;;;;;;;;2.00;2.00;;;;;21.23;45.78;102204.66;4958391;28;45452;-76
2022/07/10 02:34:44;;;;;;;;;4.00;3.00;;;;;21.20;45.82;102195.69;4956923;28;45614;-76
2022/07/10 02:37:09;;;;;;;;;2.00;2.00;;;;;21.00;45.23;102157.94;4956717;28;45434;-76
2022/07/10 02:39:35;;;;;;;;;3.00;3.00;;;;;21.17;45.65;102199.28;4957988;28;46412;-76
2022/07/10 02:42:00;;;;;;;;;4.00;3.00;;;;;20.92;45.77;102163.34;4957777;28;45359;-76
2022/07/10 02:44:25;;;;;;;;;2.00;2.00;;;;;21.11;45.68;102183.09;4958168;28;45437;-76
2022/07/10 02:46:51;;;;;;;;;3.33;3.00;;;;;21.14;45.86;102193.91;4956639;28;45417;-77
2022/07/10 02:49:16;;;;;;;;;5.00;3.00;;;;;21.20;45.73;102209.19;4958158;28;45528;-76
2022/07/10 02:51:41;;;;;;;;;2.33;2.33;;;;;20.95;45.74;102168.72;4956712;28;45438;-76
2022/07/10 02:54:07;;;;;;;;;2.67;2.67;;;;;21.03;45.93;102184.91;4957647;28;45444;-76
2022/07/10 02:56:33;;;;;;;;;4.00;4.00;;;;;20.97;46.12;102177.75;4956882;28;45504;-76
2022/07/10 02:58:58;;;;;;;;;3.00;1.67;;;;;20.90;46.00;102165.16;4957109;28;45719;-76
2022/07/10 03:01:24;;;;;;;;;3.00;3.00;;;;;21.00;45.97;102184.94;4957818;28;45470;-76
2022/07/10 03:03:49;;;;;;;;;4.00;3.00;;;;;20.97;46.45;102175.03;4957765;28;45514;-76
2022/07/10 03:06:15;;;;;;;;;3.00;3.00;;;;;20.95;46.29;102171.44;4957942;28;45406;-76
2022/07/10 03:08:41;;;;;;;;;4.67;3.00;;;;;21.01;46.06;102155.25;4957632;28;45373;-76
2022/07/10 03:11:07;;;;;;;;;5.00;2.33;;;;;21.05;46.02;102167.84;4957826;28;45414;-76
2022/07/10 03:13:32;;;;;;;;;3.00;3.00;;;;;21.02;46.13;102158.81;4956202;28;45486;-76
2022/07/10 03:15:57;;;;;;;;;2.00;2.00;;;;;21.08;46.02;102177.69;4956264;28;45322;-76
2022/07/10 03:18:23;;;;;;;;;4.00;3.00;;;;;;;;4957695;28;45805;-76
2022/07/10 03:20:48;;;;;;;;;3.00;3.00;;;;;21.07;46.14;102175.91;4957483;28;45422;-76
2022/07/10 03:23:14;;;;;;;;;3.00;3.00;;;;;21.18;45.82;102186.66;4957833;28;45333;-76
2022/07/10 03:25:39;;;;;;;;;3.00;3.00;;;;;21.05;45.91;102157.03;4957566;28;45391;-77
2022/07/10 03:28:04;;;;;;;;;4.00;4.00;;;;;21.09;45.71;102157.91;4957047;28;46571;-77
2022/07/10 03:30:30;;;;;;;;;2.33;2.33;;;;;21.10;46.14;102164.22;4957541;28;45341;-76
2022/07/10 03:32:55;;;;;;;;;3.00;2.00;;;;;21.16;46.02;102175.88;4957526;28;45390;-76
2022/07/10 03:35:20;;;;;;;;;3.00;3.00;;;;;21.19;45.86;102164.19;4956090;28;45378;-76
2022/07/10 03:37:46;;;;;;;;;3.67;3.33;;;;;21.22;45.64;102174.97;4957616;28;46019;-76
2022/07/10 03:40:11;;;;;;;;;2.67;2.67;;;;;21.24;45.53;102179.47;4957319;28;45341;-77
2022/07/10 03:42:37;;;;;;;;;5.00;4.00;;;;;21.13;45.67;102170.50;4955664;28;45476;-77
2022/07/10 03:45:02;;;;;;;;;3.33;3.33;;;;;21.17;45.88;102180.38;4957169;28;45540;-77
2022/07/10 03:47:28;;;;;;;;;4.00;2.67;;;;;21.04;45.89;102154.31;4956269;28;46262;-76
2022/07/10 03:49:53;;;;;;;;;5.67;4.00;;;;;21.29;45.71;102190.25;4956923;28;45578;-76
2022/07/10 03:52:18;;;;;;;;;4.00;4.00;;;;;21.25;45.49;102180.34;4955920;28;45500;-75
2022/07/10 03:54:44;;;;;;;;;4.67;4.00;;;;;21.27;45.95;102194.75;4956944;28;45368;-76
2022/07/10 03:59:53;;;;;;;;;5.00;4.33;;;;;21.25;45.64;102196.53;4956983;28;45608;-77
2022/07/10 04:02:18;;;;;;;;;5.33;4.00;;;;;21.18;45.84;102190.28;4957105;28;45396;-77
2022/07/10 04:04:44;;;;;;;;;3.00;3.00;;;;;21.23;46.19;102191.16;4956865;28;45499;-77
2022/07/10 04:07:10;;;;;;;;;3.00;3.00;;;;;21.06;45.76;102169.59;4956777;28;46269;-77
2022/07/10 04:09:36;;;;;;;;;3.00;3.00;;;;;21.07;45.77;102162.44;4956857;28;45452;-77
2022/07/10 04:12:01;;;;;;;;;4.00;3.67;;;;;21.15;45.99;102176.81;4956513;28;45433;-77
2022/07/10 04:14:27;;;;;;;;;3.00;3.00;;;;;21.03;45.82;102156.13;4957096;28;45469;-77
2022/07/10 04:16:52;;;;;;;;;3.00;3.00;;;;;21.34;45.80;102196.53;4956558;28;45837;-77
2022/07/10 04:19:18;;;;;;;;;5.00;5.00;;;;;21.23;45.71;102169.56;4955573;28;45994;-77
2022/07/10 04:21:43;;;;;;;;;5.00;3.33;;;;;21.29;45.50;102183.94;4955589;28;45452;-77
2022/07/10 04:24:08;;;;;;;;;3.00;3.00;;;;;21.34;45.82;102192.94;4956605;28;45305;-77
2022/07/10 04:26:34;;;;;;;;;4.33;4.00;;;;;21.25;45.52;102166.84;4956413;28;45468;-76
2022/07/10 04:28:59;;;;;;;;;4.67;3.33;;;;;21.34;45.73;102187.56;4956445;28;45412;-76
2022/07/10 04:31:25;;;;;;;;;2.67;2.67;;;;;21.28;45.38;102176.75;4956754;28;45825;-77
2022/07/10 04:33:50;;;;;;;;;3.00;3.00;;;;;21.45;45.49;102207.31;4956540;28;45440;-77
2022/07/10 04:36:16;;;;;;;;;4.00;4.00;;;;;21.40;45.44;102192.91;4956214;28;47636;-77
2022/07/10 04:38:41;;;;;;;;;5.33;4.00;;;;;21.44;45.58;102200.09;4956331;28;45521;-77
2022/07/10 04:41:07;;;;;;;;;5.33;3.00;;;;;21.46;45.49;102195.63;4956042;28;45354;-77
2022/07/10 04:43:32;;;;;;;;;3.33;3.00;;;;;21.39;45.28;102180.31;4956365;28;45402;-77
2022/07/10 04:45:58;;;;;;;;;4.00;3.00;;;;;21.41;45.46;102186.63;4954800;28;47042;-77
2022/07/10 04:48:23;;;;;;;;;4.00;4.00;;;;;21.51;45.43;102201.00;4956598;28;45441;-77
2022/07/10 04:50:48;;;;;;;;;3.67;2.67;;;;;21.39;45.17;102189.34;4956410;28;45730;-77
2022/07/10 04:53:14;;;;;;;;;4.00;4.00;;;;;21.44;45.29;102193.81;4956321;28;45523;-76
2022/07/10 04:55:39;;;;;;;;;3.33;3.33;;;;;21.29;45.38;102165.06;4955683;28;45456;-77
2022/07/10 04:58:04;;;;;;;;;5.00;4.00;;;;;21.45;45.54;102191.13;4954700;28;45768;-77
2022/07/10 05:00:30;;;;;;;;;5.67;4.00;;;;;21.42;45.36;102204.63;4959684;28;45425;-77
2022/07/10 05:02:55;;;;;;;;;4.00;4.00;;;;;21.39;45.52;102189.34;4959521;28;45453;-77
2022/07/10 05:05:20;;;;;;;;;4.00;4.00;;;;;21.55;45.17;102203.69;4959534;28;46158;-77
2022/07/10 05:07:46;;;;;;;;;3.00;3.00;;;;;21.45;45.11;102184.78;4959625;28;45465;-77
2022/07/10 05:10:11;;;;;;;;;4.00;3.00;;;;;21.33;45.21;102172.25;4959282;28;45449;-75
2022/07/10 05:12:36;;;;;;;;;4.00;2.67;;;;;21.39;45.46;102177.63;4959618;28;45374;-70
2022/07/10 05:15:02;;;;;;;;;5.00;3.00;;;;;21.45;45.17;102191.13;4959318;28;45477;-71
2022/07/10 05:17:28;;;;;;;;;3.00;3.00;;;;;21.35;45.35;102195.63;4959414;28;45445;-69
2022/07/10 05:19:55;;;;;;;;;3.33;3.00;;;;;21.42;45.46;102204.63;4959292;28;45588;-70
2022/07/10 05:22:21;;;;;;;;;4.33;4.00;;;;;21.49;45.64;102208.19;4959542;28;45465;-70
2022/07/10 05:24:47;;;;;;;;;5.00;5.00;;;;;21.52;45.40;102210.94;4957812;28;48043;-68
2022/07/10 05:27:12;;;;;;;;;3.00;3.00;;;;;21.55;45.36;102209.09;4959148;28;45408;-68
2022/07/10 05:29:37;;;;;;;;;5.00;4.00;;;;;21.54;45.13;102210.00;4959380;28;45708;-68
2022/07/10 05:32:03;;;;;;;;;4.33;3.00;;;;;21.51;45.51;102204.56;4959128;28;45475;-69
2022/07/10 05:34:28;;;;;;;;;4.67;4.00;;;;;21.54;45.08;102207.28;4957974;28;48269;-67
2022/07/10 05:36:54;;;;;;;;;6.00;4.33;;;;;21.46;44.78;102168.63;4959048;28;45413;-69
2022/07/10 05:39:19;;;;;;;;;3.33;3.33;;;;;21.74;44.29;102207.25;4958982;28;45309;-69
2022/07/10 05:41:44;;;;;;;;;4.00;3.00;;;;;21.72;44.59;102189.25;4955246;28;45644;-68
2022/07/10 05:44:10;;;;;;;;;3.67;3.67;;;;;21.85;44.57;102209.88;4958650;28;46278;-68
2022/07/10 05:46:35;;;;;;;;;2.00;2.00;;;;;21.77;44.24;102192.78;4959069;28;45199;-68
2022/07/10 05:49:01;;;;;;;;;5.67;3.67;;;;;21.83;44.13;102203.59;4957168;28;45328;-67
2022/07/10 05:51:26;;;;;;;;;5.00;4.00;;;;;21.82;44.57;102215.28;4954988;28;45466;-69
2022/07/10 05:53:52;;;;;;;;;5.00;4.00;;;;;21.75;44.38;102197.31;4944289;28;45264;-68
2022/07/10 05:56:17;;;;;;;;;4.00;4.00;;;;;21.88;44.16;102209.88;4952680;28;45302;-69
2022/07/10 05:58:42;;;;;;;;;3.00;3.00;;;;;21.96;43.88;102215.22;4954386;28;45729;-68
2022/07/10 06:01:08;;;;;;;;;4.00;4.00;;;;;21.99;44.08;102227.84;4958345;28;45618;-69
2022/07/10 06:03:33;;;;;;;;;3.00;3.00;;;;;22.00;43.82;102213.41;4940114;28;45361;-68
2022/07/10 06:05:59;;;;;;;;;3.00;3.00;;;;;22.08;43.88;102227.75;4955671;28;45928;-68
2022/07/10 06:08:25;;;;;;;;;4.00;3.67;;;;;22.11;43.61;102225.06;4958586;28;45302;-69
2022/07/10 06:10:50;;;;;;;;;4.33;4.00;;;;;22.08;43.57;102219.66;4956370;28;45570;-67
2022/07/10 06:13:15;;;;;;;;;5.00;4.67;;;;;22.10;43.80;102216.03;4952564;28;45446;-68
2022/07/10 06:15:41;;;;;;;;;4.00;3.00;;;;;22.07;43.71;102224.19;4957356;28;45441;-68
2022/07/10 06:18:06;;;;;;;;;3.67;3.67;;;;;22.08;44.17;102219.66;4958465;28;45252;-68
2022/07/10 06:20:31;;;;;;;;;4.00;3.00;;;;;22.17;43.88;102225.03;4958138;28;45383;-68
2022/07/10 06:22:57;;;;;;;;;4.00;4.00;;;;;22.20;43.44;102211.47;4939493;28;45581;-68
2022/07/10 06:25:23;;;;;;;;;4.67;4.00;;;;;22.23;43.66;102216.88;4949027;28;45424;-68
2022/07/10 06:27:48;;;;;;;;;3.00;3.00;;;;;22.22;43.79;102214.16;4958479;28;45487;-68
2022/07/10 06:30:14;;;;;;;;;2.33;2.33;;;;;22.17;43.31;102200.69;4957714;28;45396;-69
2022/07/10 06:32:39;;;;;;;;;3.33;3.33;;;;;22.31;43.01;102211.44;4958287;28;46557;-68
2022/07/10 06:35:06;;;;;;;;;4.33;3.00;;;;;22.32;43.00;102204.19;4957788;28;45547;-68
2022/07/10 06:37:32;;;;;;;;;4.00;4.00;;;;;22.32;43.05;102201.50;4958096;28;45385;-68
2022/07/10 06:39:57;;;;;;;;;4.33;3.33;;;;;22.34;43.33;102203.31;4949262;28;45516;-68
2022/07/10 06:42:23;;;;;;;;;6.00;4.00;;;;;22.41;42.88;102212.28;4957742;28;45413;-68
2022/07/10 06:44:48;;;;;;;;;2.33;2.33;;;;;22.40;42.62;102213.19;4947679;28;45476;-68
2022/07/10 06:50:02;;;;;;;;;3.00;3.00;;;;;22.47;42.44;102212.22;4957576;28;45403;-68
2022/07/10 06:52:28;;;;;;;;;5.33;3.33;;;;;22.51;42.35;102211.31;4955962;28;45400;-68
2022/07/10 06:54:54;;;;;;;;;3.67;2.67;;;;;22.54;42.75;102207.69;4938103;28;45346;-68
2022/07/10 06:57:20;;;;;;;;;2.00;2.00;;;;;22.53;42.76;102208.59;4946865;28;45469;-68
2022/07/10 06:59:46;;;;;;;;;4.00;3.33;;;;;22.52;42.57;102218.53;4957241;28;45259;-68
2022/07/10 07:02:11;;;;;;;;;3.00;3.00;;;;;22.51;42.03;102208.59;4956403;28;46075;-68
2022/07/10 07:04:37;;;;;;;;;3.33;3.33;;;;;22.61;42.04;102217.53;4937054;28;45427;-67
2022/07/10 07:07:03;;;;;;;;;2.33;2.33;;;;;22.60;41.56;102210.31;4936817;28;45595;-67
2022/07/10 07:09:28;;;;;;;;;2.00;2.00;;;;;22.64;41.27;102211.22;4944768;28;45431;-67
2022/07/10 07:11:53;;;;;;;;;2.00;2.00;;;;;22.60;41.54;102211.25;4940873;28;46273;-67
2022/07/10 07:14:19;;;;;;;;;3.00;3.00;;;;;22.67;41.20;102213.88;4945668;28;45528;-67
2022/07/10 07:16:46;;;;;;;;;3.33;3.00;;;;;22.69;41.32;102206.69;4939090;28;45538;-67
2022/07/10 07:19:17;;;;;;;;;2.00;2.00;;;;;22.66;41.24;102194.06;4936649;28;45606;-65
2022/07/10 07:24:30;;;;;;;;;3.00;3.00;;;;;22.78;40.87;102198.47;4943191;28;45528;-67
2022/07/10 07:26:55;;;;;;;;;3.00;2.00;;;;;22.87;41.04;102206.50;4947911;28;45542;-66
2022/07/10 07:29:20;;;;;;;;;3.00;3.00;;;;;22.87;40.80;102205.59;4949940;28;45527;-66
2022/07/10 07:31:46;;;;;;;;;3.00;3.00;;;;;22.86;40.62;102190.28;4938534;28;46471;-67
2022/07/10 07:34:11;;;;;;;;;3.00;3.00;;;;;22.94;40.87;102197.41;4938571;28;45683;-67
2022/07/10 07:36:37;;;;;;;;;5.00;3.67;;;;;22.95;40.73;102199.22;4946382;28;45725;-66
2022/07/10 07:39:03;;;;;;;;;2.33;2.33;;;;;22.95;40.50;102190.19;4949275;28;45565;-67
2022/07/10 07:41:28;;;;;;;;;4.00;4.00;;;;;22.90;40.64;102171.28;4949536;28;46206;-68
2022/07/10 07:43:54;;;;;;;;;3.00;3.00;;;;;23.01;40.61;102186.50;4936385;28;45501;-69
2022/07/10 07:46:20;;;;;;;;;3.00;2.00;;;;;22.98;40.59;102178.44;4948104;28;45859;-67
2022/07/10 07:48:45;;;;;;;;;3.00;3.00;;;;;23.01;40.31;102182.03;4941822;28;45466;-67
2022/07/10 07:51:11;;;;;;;;;3.00;3.00;;;;;23.08;40.18;102180.13;4947071;28;45878;-66
2022/07/10 07:53:37;;;;;;;;;4.33;3.00;;;;;23.09;39.90;102171.09;4943669;28;45603;-66
2022/07/10 07:56:04;;;;;;;;;2.00;2.00;;;;;23.15;39.81;102179.22;4944710;28;46134;-65
2022/07/10 07:58:29;;;;;;;;;2.67;2.00;;;;;23.19;39.47;102180.97;4939360;28;45662;-65
2022/07/10 08:00:56;;;;;;;;;3.00;3.00;;;;;23.21;39.29;102173.72;4940923;28;46546;-65
2022/07/10 08:03:22;;;;;;;;;2.00;2.00;;;;;23.27;38.91;102179.03;4942385;28;46043;-65
2022/07/10 08:05:47;;;;;;;;;2.33;2.00;;;;;23.22;39.31;102164.69;4941319;28;45452;-66
2022/07/10 08:08:12;;;;;;;;;1.33;1.33;;;;;23.26;38.68;102162.81;4947339;28;45840;-66
2022/07/10 08:10:38;;;;;;;;;4.00;3.00;;;;;23.27;39.28;102170.03;4942492;28;46207;-66
2022/07/10 08:13:04;;;;;;;;;1.67;1.67;;;;;23.31;39.08;102173.63;4939873;28;45563;-64
2022/07/10 08:15:30;;;;;;;;;3.67;2.67;;;;;23.36;38.46;102182.56;4947970;28;45495;-64
2022/07/10 08:17:57;;;;;;;;;2.00;2.00;;;;;23.42;38.36;102179.81;4952604;28;45493;-65
2022/07/10 08:20:25;;;;;;;;;2.00;2.00;;;;;23.27;38.39;102156.50;4938058;28;46572;-75
2022/07/10 08:22:52;;;;;;;;;2.00;2.00;;;;;23.31;38.33;102171.78;4943691;28;45524;-79
2022/07/10 08:25:18;;;;;;;;;1.33;1.33;;;;;23.33;37.93;102174.47;4951454;28;45451;-77
2022/07/10 08:27:44;;;;;;;;;2.00;2.00;;;;;23.34;38.08;102179.88;4956045;28;45638;-75
2022/07/10 08:30:10;;;;;;;;;3.00;2.00;;;;;23.35;38.38;102176.25;4955497;28;45428;-76
2022/07/10 08:32:36;;;;;;;;;2.00;2.00;;;;;23.45;37.97;102180.66;4970162;28;45342;-78
2022/07/10 08:35:02;;;;;;;;;4.00;2.67;;;;;23.44;38.13;102173.44;4955212;28;45335;-78
2022/07/10 08:37:28;;;;;;;;;3.00;2.00;;;;;23.42;38.29;102166.25;4943701;28;45533;-78
2022/07/10 08:39:53;;;;;;;;;2.00;2.00;;;;;23.43;37.60;102155.41;4937588;28;45383;-78
2022/07/10 08:42:20;;;;;;;;;1.67;1.67;;;;;23.15;37.44;102105.19;4952353;28;45295;-77
2022/07/10 08:44:46;;;;;;;;;2.00;2.00;;;;;23.20;37.49;102115.06;4936991;28;45458;-77
2022/07/10 08:47:12;;;;;;;;;3.00;2.00;;;;;23.41;37.51;102159.94;4936911;28;45867;-77
2022/07/10 08:49:47;;;;;;;;;2.33;2.33;;;;;23.31;37.17;102133.00;4936062;28;45544;-77
2022/07/10 08:52:21;;;;;;;;;2.00;2.00;;;;;23.40;37.75;102155.44;4934724;28;45465;-77
2022/07/10 08:54:46;;;;;;;;;2.00;2.00;;;;;23.51;37.64;102147.16;4936074;28;45507;-77
2022/07/10 08:57:12;;;;;;;;;2.67;2.67;;;;;23.43;36.41;102138.25;4939611;28;45568;-77
2022/07/10 08:59:37;;;;;;;;;2.00;2.00;;;;;23.36;36.80;102136.53;4954175;28;47307;-77
2022/07/10 09:02:03;;;;;;;;;2.00;2.00;;;;;23.38;37.58;102122.06;4947097;28;45472;-77
2022/07/10 09:04:28;;;;;;;;;1.67;1.67;;;;;23.57;37.24;102133.56;4936900;28;45563;-77
2022/07/10 09:06:55;;;;;;;;;3.00;3.00;;;;;23.67;36.74;102145.19;4950303;28;45419;-77
2022/07/10 09:09:21;;;;;;;;;1.00;1.00;;;;;23.61;36.80;102131.69;4956117;28;45437;-77
2022/07/10 09:11:47;;;;;;;;;3.00;3.00;;;;;23.66;36.62;102139.78;4937645;28;45487;-77
2022/07/10 09:14:16;;;;;;;;;4.00;2.67;;;;;23.60;36.95;102124.47;4936998;28;45286;-77
2022/07/10 09:16:45;;;;;;;;;2.67;2.00;;;;;23.67;36.64;102130.72;4936364;28;45384;-77
2022/07/10 09:19:21;;;;;;;;;2.00;2.00;;;;;23.71;37.21;102110.78;4936610;28;46146;-77
2022/07/10 09:21:52;;;;;;;;;2.00;2.00;;;;;23.78;36.43;102121.53;4936522;28;45431;-78
2022/07/10 09:24:21;;;;;;;;;5.00;2.67;;;;;23.74;36.30;102119.78;4936684;28;45487;-78
2022/07/10 09:26:56;;;;;;;;;2.33;2.33;;;;;23.79;35.74;102119.69;4935261;28;45548;-78
2022/07/10 09:29:21;;;;;;;;;2.00;2.00;;;;;23.62;35.75;102100.97;4936088;28;46519;-78
2022/07/10 09:31:54;;;;;;;;;3.00;3.00;;;;;23.75;36.26;102101.69;4936486;28;45441;-78
2022/07/10 09:34:42;;;;;;;;;2.00;2.00;;;;;23.94;36.13;102124.94;4936679;28;45402;-78
2022/07/10 09:37:27;;;;;;;;;2.00;2.00;;;;;23.98;35.26;102121.25;4936702;28;45266;-78
2022/07/10 09:39:58;;;;;;;;;2.00;2.00;;;;;23.92;35.08;102082.50;4936306;28;46330;-78
2022/07/10 09:42:30;;;;;;;;;3.33;2.00;;;;;24.04;34.82;102105.81;4936327;28;45404;-78
2022/07/10 09:45:10;;;;;;;;;2.67;2.67;;;;;24.23;35.22;102115.47;4935949;28;45507;-78
2022/07/10 09:47:36;;;;;;;;;2.67;2.00;;;;;24.20;34.62;102109.19;4939294;28;45525;-78
2022/07/10 09:50:02;;;;;;;;;3.00;3.00;;;;;24.34;34.86;102119.81;4939498;28;45726;-78
2022/07/10 09:52:28;;;;;;;;;4.33;3.00;;;;;24.32;34.45;102104.44;4939675;28;45764;-78
2022/07/10 09:54:59;;;;;;;;;2.33;2.00;;;;;24.40;34.96;102103.41;4939513;28;45309;-78
2022/07/10 09:57:27;;;;;;;;;2.33;2.33;;;;;24.54;34.83;102114.91;4939539;28;45356;-78
2022/07/10 09:59:55;;;;;;;;;4.33;4.00;;;;;24.53;34.87;102106.78;4957419;28;45510;-78
2022/07/10 10:02:21;;;;;;;;;2.00;2.00;;;;;24.72;34.53;102113.72;4957382;28;45446;-78
2022/07/10 10:04:48;;;;;;;;;1.00;1.00;;;;;24.84;35.26;102126.19;4958946;28;45326;-77
2022/07/10 10:07:18;;;;;;;;;3.00;3.00;;;;;24.71;35.08;102073.03;4958814;28;45455;-77
2022/07/10 10:09:53;;;;;;;;;2.00;2.00;;;;;24.77;34.86;102072.94;4958536;28;46503;-78
2022/07/10 10:12:31;;;;;;;;;2.33;2.33;;;;;24.96;34.57;102103.31;4958621;28;45392;-78
2022/07/10 10:14:58;;;;;;;;;3.00;3.00;;;;;25.02;34.28;102096.88;4958533;28;45449;-80
2022/07/10 10:17:26;;;;;;;;;4.00;3.00;;;;;25.14;34.19;102110.19;4957249;28;45521;-76
2022/07/10 10:22:45;;;;;;;;;2.67;2.67;;;;;25.16;34.35;102102.91;4958270;28;45361;-76
2022/07/10 10:25:13;;;;;;;;;1.33;1.33;;;;;25.16;33.75;102109.25;4958682;28;45471;-79
2022/07/10 10:27:40;;;;;;;;;2.33;2.33;;;;;25.04;34.10;102081.47;4958047;28;45421;-75
2022/07/10 10:30:05;;;;;;;;;3.00;2.00;;;;;25.13;34.37;102083.97;4958160;28;46441;-75
2022/07/10 10:32:32;;;;;;;;;3.00;2.00;;;;;25.26;34.13;102096.38;4958193;28;45399;-74
2022/07/10 10:34:59;;;;;;;;;1.33;1.33;;;;;25.26;33.96;102074.66;4958168;28;44949;-74
2022/07/10 10:37:36;;;;;;;;;1.67;1.67;;;;;25.43;34.42;102089.69;4958153;28;45407;-74
2022/07/10 10:40:03;;;;;;;;;2.33;2.33;;;;;25.40;33.96;102073.47;4957900;28;45484;-74
2022/07/10 10:42:43;;;;;;;;;2.00;2.00;;;;;25.41;34.71;102070.72;4957884;28;45526;-74
2022/07/10 10:45:23;;;;;;;;;4.00;4.00;;;;;25.48;33.52;102085.06;4958170;28;45471;-75
2022/07/10 10:47:58;;;;;;;;;6.00;6.00;;;;;25.54;34.36;102078.59;4957999;28;45362;-75
2022/07/10 10:50:46;;;;;;;;;4.33;3.33;;;;;25.58;34.08;102081.19;4957882;28;45414;-74
2022/07/10 10:53:26;;;;;;;;;3.00;3.00;;;;;25.47;34.00;102046.13;4952326;28;45397;-74
2022/07/10 10:56:03;;;;;;;;;2.00;2.00;;;;;25.55;33.74;102067.69;4958031;28;45422;-75
2022/07/10 10:58:43;;;;;;;;;4.33;4.00;;;;;25.61;34.51;102064.84;4957560;28;45610;-74
2022/07/10 11:01:29;;;;;;;;;7.33;6.67;;;;;25.73;34.31;102058.22;4956334;28;47171;-73
2022/07/10 11:04:09;;;;;;;;;4.00;4.00;;;;;25.76;33.96;102059.97;4957546;28;45476;-74
2022/07/10 11:06:53;;;;;;;;;2.67;2.67;;;;;25.82;33.81;102054.38;4956735;28;45488;-74
2022/07/10 11:09:26;;;;;;;;;1.33;1.33;;;;;25.82;34.09;102052.56;4957692;28;45265;-73
2022/07/10 11:12:09;;;;;;;;;3.00;1.00;;;;;25.85;33.92;102032.56;4957153;28;46118;-75
2022/07/10 11:14:46;;;;;;;;;2.33;2.33;;;;;25.75;34.13;102037.34;4957556;28;45366;-74
2022/07/10 11:17:12;;;;;;;;;2.00;2.00;;;;;25.73;33.93;102032.88;4957796;28;45362;-74
2022/07/10 11:19:39;;;;;;;;;2.00;2.00;;;;;25.66;33.79;102013.09;4957524;28;45785;-74
2022/07/10 11:22:35;;;;;;;;;1.67;1.67;;;;;25.60;34.42;102041.31;4952081;28;45507;-76
2022/07/10 11:25:14;;;;;;;;;3.67;2.00;;;;;25.72;34.25;102034.66;4941051;28;45564;-74
2022/07/10 11:28:08;;;;;;;;;4.00;3.00;;;;;25.69;34.34;102021.16;4933848;28;45580;-75
2022/07/10 11:30:53;;;;;;;;;5.00;5.00;;;;;25.79;34.77;102020.00;4944810;28;45492;-76
2022/07/10 11:33:23;;;;;;;;;2.75;2.75;;;;;25.85;34.61;102011.72;4937182;28;46408;-76
2022/07/10 11:35:53;;;;;;;;;3.00;3.00;;;;;25.87;34.71;102014.38;4940796;28;45672;-74
2022/07/10 11:38:22;;;;;;;;;3.33;3.00;;;;;25.98;34.96;102017.72;4959573;28;45426;-75
2022/07/10 11:40:48;;;;;;;;;2.33;2.33;;;;;25.98;34.13;102008.69;4941643;28;45479;-75